Florence, South Carolina
Current Conditions -  °F | °C
As of 7:53 PM on Tuesday 25 Nov 2014 (Local Time) from KFLO Reporting Station
Overcast Overcast  
Wind Chill: 61°   Ceiling: 7500
Heat Index: 61°   Visibility: 7mi
Dew Point: 59°   Wind: 6mph
Humidity: 93%   Direction: 120°ESE
Pressure: 30.05"   Gusts: NA
Location:  34.19°N, 79.77°W
Report Text: KFLO 260053Z 12005KT 7SM OVC075 16/15 A3005 RMK AO2 RAE52 SLP175 P0002 T01610150
Loading
Personal Weather Stations






























Interactive Weather Map New forecast layout! Learn more

10-Day Weather Forecast

Advertisements
Track Severe Weather on mobile